עמוד ראשי
METAR-TAF:

METAR-TAF

שדות תעופה :

Mardin, טורקיה

קו רוחב: 37-13-58N, קו אורך: 40-38-26E, גובה: 527מטר

תצפית מזג אוויר נוכחית

הדו"ח נערך לפני 41דקות, בשעה 10:50 UTC
רוח 6קשר עם כיוונים משתנים
טמפרטורת 42 צלסיוס
לחות 11%
לחץ 1002 hPa
ראות 10 קילומטר או יותר
עננים פזורים בגובה 4000רגל

METAR: LTCR 251050Z VRB06KT 9999 SCT040 42/06 Q1002

זמן: 14:31 (11:31 UTC)

תחזית

הדו"ח נערך לפני 3 שעות ו 51דקות, בשעה 07:40 UTC
תחזית בתוקף מ 25 ב 09 UTC עד 25 ב 18 UTC
רוח 2קשר עם כיוונים משתנים
ראות 10 קילומטר או יותר
ללא עננים שבסיסם נמוך מ 5000 רגל או קומולונימבוס
יעשה מ
25 ב 10 UTC עד 25 ב 12 UTC
רוח 12קשר מכיוון צפון/צפון-מזרח
מעט עננים בגובה 4000רגל
עננים פזורים בגובה 10000רגל
הסתברות 40% :
זמנית מ -
25 ב 12 UTC עד 25 ב 16 UTC
רוח 15קשר עם כיוונים משתנים עם משבים עד 25קשר
מעט עננים בגובה 2500רגל , קומולונימבוס.
עננים בינוניים בגובה 3500רגל
סופת רעמים, גשם קל,

TAF: LTCR 250740Z 2509/2518 VRB02KT CAVOK BECMG 2510/2512 02012KT FEW040 SCT100 PROB40 TEMPO 2512/2516 VRB15G25KT -TSRA FEW025CB BKN035

תצפיות ותחזיות מזג אוויר לגבי יותר מ- 4,000 שדות תעופה ברחבי העולם. דוחות METAR ו- TAF.

התחנות הזמינות מסומנות בנקודות צהובות ואדומות על גבי המפה.

העבר את העכבר לנקודה הצבעונית על מנת לראות את שם התחנה.

לאחר מכן, לחץ כדי לראות את תוכן ואת תחזיות מזג האוויר.

כדי לשנות את המפה: לחץ על הכפתורים הירוקים עם הפלוס השחור כדי להתקרב; על הכפתור הירוק עם המקף כדי להתרחק; או בחיצים הירוקים למפות סמוכות.


METAR-TAF: